createdAt,value
2019-05-14T00:01:51.398Z,3.80
2019-05-14T00:04:22.022Z,3.80
2019-05-14T00:06:51.977Z,3.70
2019-05-14T00:09:21.533Z,3.70
2019-05-14T00:11:51.242Z,3.70
2019-05-14T00:14:22.102Z,3.60
2019-05-14T00:16:51.436Z,3.60
2019-05-14T00:19:21.577Z,3.60
2019-05-14T00:21:51.456Z,3.50
2019-05-14T00:24:21.741Z,3.50
2019-05-14T00:26:51.699Z,3.60
2019-05-14T00:29:22.010Z,3.50
2019-05-14T00:31:51.666Z,3.50
2019-05-14T00:34:21.476Z,3.50
2019-05-14T00:36:52.401Z,3.40
2019-05-14T00:39:21.412Z,3.50
2019-05-14T00:41:51.315Z,3.60
2019-05-14T00:44:21.518Z,3.80
2019-05-14T00:46:51.663Z,3.80
2019-05-14T00:49:21.203Z,3.80
2019-05-14T00:51:51.908Z,3.90
2019-05-14T00:54:21.531Z,3.90
2019-05-14T00:56:52.174Z,4.00
2019-05-14T00:59:21.690Z,4.10
2019-05-14T01:01:51.643Z,4.10
2019-05-14T01:04:22.227Z,4.20
2019-05-14T01:06:51.369Z,4.20
2019-05-14T01:09:21.804Z,4.10
2019-05-14T01:11:51.317Z,4.10
2019-05-14T01:14:21.111Z,4.10
2019-05-14T01:16:51.380Z,4.00
2019-05-14T01:19:21.409Z,4.00
2019-05-14T01:21:51.046Z,3.90
2019-05-14T01:24:21.591Z,4.00
2019-05-14T01:26:52.296Z,3.90
2019-05-14T01:29:21.933Z,3.90
2019-05-14T01:31:52.037Z,3.90
2019-05-14T01:34:21.622Z,3.90
2019-05-14T01:36:52.790Z,3.90
2019-05-14T01:39:21.767Z,3.80
2019-05-14T01:41:51.644Z,3.70
2019-05-14T01:44:21.353Z,3.70
2019-05-14T01:46:51.231Z,3.70
2019-05-14T01:49:22.157Z,3.70
2019-05-14T01:51:51.287Z,3.70
2019-05-14T01:54:21.190Z,3.80
2019-05-14T01:56:51.502Z,3.80
2019-05-14T01:59:21.334Z,3.90
2019-05-14T02:01:51.683Z,3.80
2019-05-14T02:04:22.102Z,3.80
2019-05-14T02:06:51.534Z,3.80
2019-05-14T02:09:21.590Z,3.80
2019-05-14T02:11:51.847Z,3.80
2019-05-14T02:14:22.007Z,3.80
2019-05-14T02:16:51.263Z,3.80
2019-05-14T02:19:22.165Z,3.90
2019-05-14T02:21:51.392Z,4.00
2019-05-14T02:24:21.819Z,3.90
2019-05-14T02:26:51.569Z,4.00
2019-05-14T02:29:21.457Z,4.00
2019-05-14T02:31:50.751Z,4.00
2019-05-14T02:34:20.113Z,4.00
2019-05-14T02:36:49.847Z,4.00
2019-05-14T02:39:19.632Z,3.90
2019-05-14T02:41:49.918Z,4.00
2019-05-14T02:44:19.173Z,4.20
2019-05-14T02:46:50.570Z,4.30
2019-05-14T02:49:19.611Z,4.40
2019-05-14T02:51:50.359Z,4.50
2019-05-14T02:54:20.389Z,4.50
2019-05-14T02:56:49.739Z,4.60
2019-05-14T02:59:19.610Z,4.50
2019-05-14T03:01:50.341Z,4.50
2019-05-14T03:04:20.026Z,4.50
2019-05-14T03:06:49.889Z,4.50
2019-05-14T03:09:20.313Z,4.50
2019-05-14T03:11:49.678Z,4.50
2019-05-14T03:14:19.565Z,4.50
2019-05-14T03:16:49.573Z,4.50
2019-05-14T03:19:19.649Z,4.50
2019-05-14T03:21:50.114Z,4.60
2019-05-14T03:24:19.763Z,4.50
2019-05-14T03:26:50.053Z,4.50
2019-05-14T03:29:19.744Z,4.50
2019-05-14T03:31:52.471Z,5.80
2019-05-14T03:34:33.044Z,4.60
2019-05-14T03:37:03.425Z,4.60
2019-05-14T03:39:30.018Z,4.70
2019-05-14T03:41:59.270Z,4.70
2019-05-14T03:44:29.184Z,4.70
2019-05-14T03:47:04.355Z,4.70
2019-05-14T03:49:29.055Z,4.70
2019-05-14T03:52:00.470Z,4.80
2019-05-14T03:54:29.797Z,4.80
2019-05-14T03:57:00.282Z,4.80
2019-05-14T03:59:29.729Z,4.90
2019-05-14T04:01:59.741Z,4.90
2019-05-14T04:04:30.135Z,4.90
2019-05-14T04:07:01.951Z,4.90
2019-05-14T04:09:34.361Z,5.00
2019-05-14T04:12:04.617Z,5.10
2019-05-14T04:14:34.513Z,5.30
2019-05-14T04:17:09.864Z,5.40
2019-05-14T04:19:39.386Z,5.60
2019-05-14T04:22:10.131Z,5.70
2019-05-14T04:24:41.644Z,5.80
2019-05-14T04:27:13.631Z,5.90
2019-05-14T04:29:43.012Z,6.00
2019-05-14T04:32:12.032Z,6.00
2019-05-14T04:34:40.961Z,6.10
2019-05-14T04:37:12.438Z,6.10
2019-05-14T04:39:41.446Z,6.20
2019-05-14T04:42:10.419Z,6.30
2019-05-14T04:44:40.376Z,6.40
2019-05-14T04:47:27.817Z,6.40
2019-05-14T04:49:40.530Z,6.60
2019-05-14T04:52:10.210Z,6.70
2019-05-14T04:54:39.814Z,6.80
2019-05-14T04:57:10.335Z,6.80
2019-05-14T04:59:40.223Z,6.90
2019-05-14T05:02:09.816Z,7.00
2019-05-14T05:04:41.054Z,7.10
2019-05-14T05:07:10.112Z,7.10
2019-05-14T05:09:40.064Z,7.20
2019-05-14T05:12:09.451Z,7.30
2019-05-14T05:14:39.192Z,7.30
2019-05-14T05:17:09.337Z,7.30
2019-05-14T05:19:39.383Z,7.30
2019-05-14T05:22:09.074Z,7.30
2019-05-14T05:24:38.281Z,7.30
2019-05-14T05:27:09.450Z,7.40
2019-05-14T05:29:39.286Z,7.50
2019-05-14T05:32:08.769Z,7.50
2019-05-14T05:34:38.903Z,7.60
2019-05-14T05:37:08.721Z,7.70
2019-05-14T05:39:38.578Z,7.70
2019-05-14T05:42:09.174Z,7.80
2019-05-14T05:44:39.339Z,7.80
2019-05-14T05:47:09.227Z,8.00
2019-05-14T05:49:40.502Z,7.90
2019-05-14T05:52:09.156Z,7.90
2019-05-14T05:54:38.601Z,8.00
2019-05-14T05:57:09.336Z,8.10
2019-05-14T05:59:39.245Z,8.20
2019-05-14T06:02:09.443Z,8.30
2019-05-14T06:04:39.399Z,8.40
2019-05-14T06:07:08.899Z,8.40
2019-05-14T06:09:38.331Z,8.40
2019-05-14T06:12:08.681Z,8.40
2019-05-14T06:14:38.402Z,8.40
2019-05-14T06:17:08.514Z,8.40
2019-05-14T06:19:38.170Z,8.50
2019-05-14T06:22:09.834Z,8.60
2019-05-14T06:24:38.979Z,8.70
2019-05-14T06:27:09.472Z,8.90
2019-05-14T06:29:38.597Z,9.00
2019-05-14T06:32:09.354Z,9.10
2019-05-14T06:34:38.400Z,9.20
2019-05-14T06:37:08.527Z,9.20
2019-05-14T06:39:39.114Z,9.20
2019-05-14T06:42:08.969Z,9.30
2019-05-14T06:44:38.608Z,9.30
2019-05-14T06:47:09.293Z,9.40
2019-05-14T06:49:38.656Z,9.50
2019-05-14T06:52:08.791Z,9.50
2019-05-14T06:54:38.762Z,9.60
2019-05-14T06:57:08.862Z,9.70
2019-05-14T06:59:38.210Z,9.80
2019-05-14T07:02:08.730Z,9.90
2019-05-14T07:04:39.501Z,10.00
2019-05-14T07:07:08.715Z,10.00
2019-05-14T07:09:39.911Z,9.90
2019-05-14T07:12:09.271Z,9.90
2019-05-14T07:14:38.833Z,10.00
2019-05-14T07:17:09.139Z,10.10
2019-05-14T07:19:38.647Z,10.10
2019-05-14T07:22:09.024Z,10.10
2019-05-14T07:24:40.585Z,10.10
2019-05-14T07:27:10.415Z,10.30
2019-05-14T07:29:39.329Z,10.30
2019-05-14T07:32:08.987Z,10.50
2019-05-14T07:34:38.829Z,10.50
2019-05-14T07:37:09.429Z,10.60
2019-05-14T07:39:38.704Z,10.80
2019-05-14T07:42:09.738Z,11.00
2019-05-14T07:44:39.128Z,11.20
2019-05-14T07:47:08.477Z,11.60
2019-05-14T07:49:38.608Z,11.80
2019-05-14T07:52:09.466Z,11.90
2019-05-14T07:54:39.062Z,11.90
2019-05-14T07:57:08.784Z,11.90
2019-05-14T07:59:38.256Z,12.30
2019-05-14T08:02:09.304Z,12.60
2019-05-14T08:04:38.262Z,13.40
2019-05-14T08:07:09.059Z,13.10
2019-05-14T08:09:38.992Z,13.50
2019-05-14T08:12:09.278Z,13.60
2019-05-14T08:14:45.534Z,13.70
2019-05-14T08:17:09.261Z,13.60
2019-05-14T08:19:38.598Z,13.40
2019-05-14T08:22:09.597Z,13.70
2019-05-14T08:24:38.660Z,13.90
2019-05-14T08:27:08.558Z,13.70
2019-05-14T08:29:40.060Z,14.00
2019-05-14T08:32:08.989Z,14.20
2019-05-14T08:34:38.899Z,14.30
2019-05-14T08:37:08.359Z,14.50
2019-05-14T08:39:39.194Z,14.60
2019-05-14T08:42:08.619Z,14.70
2019-05-14T08:44:38.950Z,15.10
2019-05-14T08:47:09.614Z,15.10
2019-05-14T08:49:45.835Z,15.30
2019-05-14T08:52:09.508Z,15.40
2019-05-14T08:54:39.084Z,15.70
2019-05-14T08:57:09.839Z,15.60
2019-05-14T08:59:39.764Z,15.20
2019-05-14T09:02:10.599Z,15.30
2019-05-14T09:04:42.977Z,15.00
2019-05-14T09:07:10.250Z,14.70
2019-05-14T09:09:39.289Z,14.10
2019-05-14T09:12:12.575Z,14.00
2019-05-14T09:14:38.973Z,13.80
2019-05-14T09:17:09.900Z,13.90
2019-05-14T09:19:39.483Z,13.80
2019-05-14T09:22:09.725Z,13.50
2019-05-14T09:24:39.014Z,13.60
2019-05-14T09:27:08.447Z,13.50
2019-05-14T09:29:39.493Z,13.80
2019-05-14T09:32:09.564Z,14.00
2019-05-14T09:34:39.306Z,14.20
2019-05-14T09:37:08.811Z,14.50
2019-05-14T09:39:39.417Z,14.70
2019-05-14T09:42:11.612Z,14.90
2019-05-14T09:44:40.561Z,14.80
2019-05-14T09:47:09.470Z,14.80
2019-05-14T09:49:39.676Z,15.10
2019-05-14T09:52:09.160Z,15.20
2019-05-14T09:54:41.484Z,15.10
2019-05-14T09:57:08.752Z,14.80
2019-05-14T09:59:38.476Z,14.70
2019-05-14T10:02:09.233Z,14.40
2019-05-14T10:04:39.192Z,14.30
2019-05-14T10:07:08.827Z,14.50
2019-05-14T10:09:39.055Z,14.50
2019-05-14T10:12:08.996Z,14.70
2019-05-14T10:14:48.683Z,14.60
2019-05-14T10:17:19.379Z,14.60
2019-05-14T10:19:49.917Z,14.70
2019-05-14T10:22:19.734Z,14.90
2019-05-14T10:24:49.075Z,15.40
2019-05-14T10:27:20.849Z,15.50
2019-05-14T10:29:50.203Z,15.70
2019-05-14T10:32:19.160Z,16.00
2019-05-14T10:34:48.527Z,15.90
2019-05-14T10:37:19.126Z,15.70
2019-05-14T10:39:48.321Z,16.00
2019-05-14T10:42:19.868Z,16.20
2019-05-14T10:44:49.590Z,16.20
2019-05-14T10:47:18.960Z,16.00
2019-05-14T10:49:47.906Z,16.10
2019-05-14T10:52:19.458Z,16.10
2019-05-14T10:54:55.412Z,16.30
2019-05-14T10:57:18.363Z,16.20
2019-05-14T10:59:47.419Z,16.40
2019-05-14T11:02:18.553Z,16.50
2019-05-14T11:04:48.348Z,16.20
2019-05-14T11:07:18.570Z,16.30
2019-05-14T11:09:48.638Z,16.50
2019-05-14T11:12:19.243Z,16.40
2019-05-14T11:14:49.382Z,16.40
2019-05-14T11:17:19.653Z,16.30
2019-05-14T11:19:48.797Z,16.30
2019-05-14T11:22:18.418Z,15.80
2019-05-14T11:24:49.189Z,15.90
2019-05-14T11:27:18.858Z,16.00
2019-05-14T11:29:49.068Z,16.10
2019-05-14T11:32:18.526Z,16.10
2019-05-14T11:34:47.851Z,16.30
2019-05-14T11:37:18.736Z,16.50
2019-05-14T11:39:48.684Z,16.70
2019-05-14T11:42:19.931Z,17.00
2019-05-14T11:44:48.857Z,17.00
2019-05-14T11:47:18.208Z,17.10
2019-05-14T11:49:49.202Z,17.20
2019-05-14T11:52:18.101Z,17.30
2019-05-14T11:54:49.423Z,17.20
2019-05-14T11:57:19.341Z,17.50
2019-05-14T11:59:48.608Z,17.40
2019-05-14T12:02:18.878Z,17.30
2019-05-14T12:04:48.651Z,17.60
2019-05-14T12:07:19.234Z,17.90
2019-05-14T12:09:48.548Z,18.10
2019-05-14T12:12:18.998Z,17.90
2019-05-14T12:14:48.515Z,17.80
2019-05-14T12:17:18.211Z,17.90
2019-05-14T12:19:48.508Z,18.10
2019-05-14T12:22:19.047Z,18.30
2019-05-14T12:24:49.445Z,18.70
2019-05-14T12:27:19.220Z,19.00
2019-05-14T12:29:49.840Z,19.40
2019-05-14T12:32:19.198Z,19.50
2019-05-14T12:34:48.955Z,19.70
2019-05-14T12:37:18.603Z,19.50
2019-05-14T12:39:47.730Z,19.20
2019-05-14T12:42:19.401Z,18.90
2019-05-14T12:44:47.271Z,19.20
2019-05-14T12:47:18.603Z,19.00
2019-05-14T12:49:48.345Z,18.90
2019-05-14T12:52:25.260Z,18.70
2019-05-14T12:54:50.225Z,18.60
2019-05-14T12:57:19.313Z,18.40
2019-05-14T12:59:48.709Z,18.10
2019-05-14T13:02:18.752Z,18.10
2019-05-14T13:04:48.629Z,18.50
2019-05-14T13:07:19.225Z,18.50
2019-05-14T13:09:49.000Z,18.50
2019-05-14T13:12:19.598Z,18.40
2019-05-14T13:14:49.364Z,18.40
2019-05-14T13:17:18.932Z,18.30
2019-05-14T13:19:49.444Z,17.80
2019-05-14T13:22:36.457Z,17.70
2019-05-14T13:24:51.709Z,17.80
2019-05-14T13:27:23.609Z,17.70
2019-05-14T13:30:02.816Z,17.90
2019-05-14T13:32:35.813Z,18.00
2019-05-14T13:35:13.872Z,17.80
2019-05-14T13:37:44.404Z,17.80
2019-05-14T13:40:15.689Z,18.00
2019-05-14T13:42:49.162Z,17.80
2019-05-14T13:45:19.362Z,17.30
2019-05-14T13:47:49.779Z,17.40
2019-05-14T13:50:19.726Z,17.30
2019-05-14T13:53:09.223Z,17.50
2019-05-14T13:55:22.198Z,18.10
2019-05-14T13:57:52.540Z,17.80
2019-05-14T14:00:22.064Z,17.40
2019-05-14T14:02:55.334Z,17.40
2019-05-14T14:06:01.325Z,17.10
2019-05-14T14:08:30.485Z,17.00
2019-05-14T14:11:02.558Z,16.80
2019-05-14T14:13:31.812Z,16.90
2019-05-14T14:16:13.676Z,17.10
2019-05-14T14:18:39.798Z,17.50
2019-05-14T14:21:13.980Z,17.70
2019-05-14T14:23:44.977Z,18.00
2019-05-14T14:26:18.238Z,17.90
2019-05-14T14:28:49.293Z,17.90
2019-05-14T14:31:19.454Z,17.80
2019-05-14T14:33:54.076Z,17.90
2019-05-14T14:36:25.574Z,17.70
2019-05-14T14:38:58.842Z,17.60
2019-05-14T14:41:39.098Z,17.30
2019-05-14T14:44:09.723Z,17.40
2019-05-14T14:46:41.521Z,17.10
2019-05-14T14:49:11.773Z,17.30
2019-05-14T14:51:44.987Z,16.80
2019-05-14T14:54:20.541Z,17.00
2019-05-14T14:56:52.768Z,16.80
2019-05-14T14:59:25.826Z,16.90
2019-05-14T15:01:59.946Z,16.70
2019-05-14T15:04:35.301Z,16.20
2019-05-14T15:07:05.291Z,16.00
2019-05-14T15:09:40.419Z,15.50
2019-05-14T15:12:09.056Z,15.40
2019-05-14T15:14:42.327Z,15.20
2019-05-14T15:17:14.192Z,15.00
2019-05-14T15:19:45.092Z,14.60
2019-05-14T15:22:20.483Z,14.40
2019-05-14T15:24:48.950Z,14.50
2019-05-14T15:27:19.640Z,14.40
2019-05-14T15:29:53.406Z,14.40
2019-05-14T15:32:26.200Z,14.50
2019-05-14T15:34:59.323Z,14.60
2019-05-14T15:37:31.648Z,14.80
2019-05-14T15:40:04.352Z,14.70
2019-05-14T15:42:39.192Z,14.70
2019-05-14T15:45:09.145Z,14.80
2019-05-14T15:47:49.015Z,15.00
2019-05-14T15:50:20.070Z,15.50
2019-05-14T15:52:56.281Z,15.70
2019-05-14T15:55:30.408Z,16.00
2019-05-14T15:58:08.535Z,15.90
2019-05-14T16:00:38.574Z,16.20
2019-05-14T16:03:10.047Z,16.30
2019-05-14T16:05:40.681Z,16.30
2019-05-14T16:08:10.380Z,16.50
2019-05-14T16:10:40.112Z,17.10
2019-05-14T16:13:11.385Z,18.10
2019-05-14T16:15:40.574Z,19.40
2019-05-14T16:18:18.610Z,20.20
2019-05-14T16:20:45.384Z,21.10
2019-05-14T16:23:21.771Z,21.70
2019-05-14T16:25:51.298Z,21.80
2019-05-14T16:28:21.922Z,22.60
2019-05-14T16:30:54.910Z,22.90
2019-05-14T16:33:29.141Z,22.60
2019-05-14T16:35:58.822Z,23.20
2019-05-14T16:38:34.052Z,23.40
2019-05-14T16:41:04.247Z,23.70
2019-05-14T16:43:34.626Z,22.80
2019-05-14T16:46:09.702Z,23.10
2019-05-14T16:48:42.332Z,23.40
2019-05-14T16:51:14.270Z,23.30
2019-05-14T16:53:48.620Z,23.20
2019-05-14T16:56:19.267Z,21.80
2019-05-14T16:58:54.675Z,21.50
2019-05-14T17:01:24.601Z,22.00
2019-05-14T17:03:55.478Z,22.80
2019-05-14T17:06:29.085Z,23.00
2019-05-14T17:08:59.467Z,22.60
2019-05-14T17:11:30.000Z,23.50
2019-05-14T17:14:04.266Z,22.60
2019-05-14T17:16:34.982Z,24.00
2019-05-14T17:19:09.145Z,23.00
2019-05-14T17:21:40.833Z,22.50
2019-05-14T17:24:11.745Z,22.20
2019-05-14T17:26:42.431Z,22.50
2019-05-14T17:29:13.862Z,21.60
2019-05-14T17:31:43.212Z,20.20
2019-05-14T17:34:18.641Z,19.80
2019-05-14T17:36:49.280Z,18.70
2019-05-14T17:39:22.062Z,17.00
2019-05-14T17:41:53.382Z,15.70
2019-05-14T17:44:27.100Z,15.00
2019-05-14T17:46:58.678Z,14.50
2019-05-14T17:49:30.651Z,13.90
2019-05-14T17:52:00.999Z,13.50
2019-05-14T17:54:32.606Z,13.30
2019-05-14T17:57:05.594Z,13.10
2019-05-14T17:59:39.769Z,12.90
2019-05-14T18:02:15.546Z,12.80
2019-05-14T18:04:48.803Z,12.70
2019-05-14T18:07:20.599Z,12.40
2019-05-14T18:09:52.263Z,12.30
2019-05-14T18:12:24.020Z,12.00
2019-05-14T18:15:02.211Z,11.90
2019-05-14T18:17:34.491Z,11.70
2019-05-14T18:20:08.469Z,11.60
2019-05-14T18:22:42.232Z,11.40
2019-05-14T18:25:14.051Z,11.30
2019-05-14T18:27:45.666Z,11.10
2019-05-14T18:30:18.249Z,11.00
2019-05-14T18:33:07.978Z,10.80
2019-05-14T18:35:51.723Z,10.60
2019-05-14T18:38:28.873Z,10.50
2019-05-14T18:41:03.822Z,10.30
2019-05-14T18:43:39.070Z,10.20
2019-05-14T18:46:13.692Z,10.10
2019-05-14T18:48:45.508Z,10.10
2019-05-14T18:51:19.356Z,10.00
2019-05-14T18:53:54.444Z,10.00
2019-05-14T18:56:29.269Z,9.90
2019-05-14T18:59:01.913Z,9.80
2019-05-14T19:01:40.821Z,9.80
2019-05-14T19:04:15.405Z,9.70
2019-05-14T19:06:48.433Z,9.60
2019-05-14T19:09:21.496Z,9.60
2019-05-14T19:11:52.793Z,9.50
2019-05-14T19:14:24.910Z,9.50
2019-05-14T19:16:58.541Z,9.50
2019-05-14T19:19:38.892Z,9.40
2019-05-14T19:22:11.105Z,9.40
2019-05-14T19:24:45.985Z,9.30
2019-05-14T19:27:21.740Z,9.30
2019-05-14T19:29:54.358Z,9.20
2019-05-14T19:32:28.303Z,9.20
2019-05-14T19:35:00.757Z,9.20
2019-05-14T19:37:31.279Z,9.10
2019-05-14T19:40:01.737Z,9.00
2019-05-14T19:42:39.002Z,9.00
2019-05-14T19:45:12.627Z,8.90
2019-05-14T19:47:45.552Z,8.80
2019-05-14T19:50:18.583Z,8.80
2019-05-14T19:52:50.921Z,8.70
2019-05-14T19:55:25.290Z,8.60
2019-05-14T19:58:13.277Z,8.50
2019-05-14T20:00:48.893Z,8.40
2019-05-14T20:03:23.311Z,8.30
2019-05-14T20:05:54.702Z,8.10
2019-05-14T20:08:38.456Z,8.00
2019-05-14T20:11:15.942Z,7.90
2019-05-14T20:13:48.457Z,7.80
2019-05-14T20:16:21.080Z,7.70
2019-05-14T20:18:51.431Z,7.60
2019-05-14T20:21:23.589Z,7.50
2019-05-14T20:23:58.909Z,7.40
2019-05-14T20:26:31.334Z,7.30
2019-05-14T20:29:02.994Z,7.30
2019-05-14T20:31:35.042Z,7.10
2019-05-14T20:34:08.325Z,7.10
2019-05-14T20:36:39.761Z,7.00
2019-05-14T20:39:10.260Z,6.90
2019-05-14T20:41:39.199Z,6.80
2019-05-14T20:44:08.454Z,6.70
2019-05-14T20:46:38.255Z,6.70
2019-05-14T20:49:08.775Z,6.60
2019-05-14T20:51:38.930Z,6.50
2019-05-14T20:54:08.890Z,6.50
2019-05-14T20:56:40.185Z,6.50
2019-05-14T20:59:09.121Z,6.40
2019-05-14T21:01:38.704Z,6.30
2019-05-14T21:04:09.006Z,6.30
2019-05-14T21:06:39.030Z,6.20
2019-05-14T21:09:08.218Z,6.20
2019-05-14T21:11:38.507Z,6.00
2019-05-14T21:14:08.944Z,5.90
2019-05-14T21:16:39.293Z,5.80
2019-05-14T21:19:08.675Z,5.80
2019-05-14T21:21:38.368Z,5.70
2019-05-14T21:24:08.892Z,5.60
2019-05-14T21:26:40.966Z,5.60
2019-05-14T21:29:11.634Z,5.60
2019-05-14T21:31:40.669Z,5.60
2019-05-14T21:34:10.229Z,5.60
2019-05-14T21:36:39.249Z,5.70
2019-05-14T21:39:08.248Z,5.70
2019-05-14T21:41:39.931Z,5.60
2019-05-14T21:44:09.178Z,5.50
2019-05-14T21:46:39.796Z,5.50
2019-05-14T21:49:11.124Z,5.40
2019-05-14T21:51:39.364Z,5.40
2019-05-14T21:54:09.525Z,5.40
2019-05-14T21:56:39.133Z,5.40
2019-05-14T21:59:09.495Z,5.40
2019-05-14T22:01:39.267Z,5.40
2019-05-14T22:04:11.468Z,5.30
2019-05-14T22:06:41.396Z,5.30
2019-05-14T22:09:10.305Z,5.20
2019-05-14T22:11:39.493Z,5.10
2019-05-14T22:14:09.912Z,5.10
2019-05-14T22:16:43.326Z,5.00
2019-05-14T22:19:12.920Z,4.90
2019-05-14T22:21:42.070Z,4.90
2019-05-14T22:24:11.378Z,4.80
2019-05-14T22:26:40.271Z,4.80
2019-05-14T22:29:09.224Z,4.70
2019-05-14T22:31:38.721Z,4.70
2019-05-14T22:34:09.578Z,4.70
2019-05-14T22:36:38.955Z,4.70
2019-05-14T22:39:07.987Z,4.70
2019-05-14T22:41:38.303Z,4.60
2019-05-14T22:44:09.565Z,4.60
2019-05-14T22:46:40.225Z,4.60
2019-05-14T22:49:09.165Z,4.60
2019-05-14T22:51:38.530Z,4.60
2019-05-14T22:54:08.684Z,4.60
2019-05-14T22:56:39.043Z,4.60
2019-05-14T22:59:08.247Z,4.60
2019-05-14T23:01:38.675Z,4.50
2019-05-14T23:04:09.072Z,4.50
2019-05-14T23:06:38.387Z,4.50
2019-05-14T23:09:09.176Z,4.50
2019-05-14T23:11:38.662Z,4.40
2019-05-14T23:14:07.714Z,4.30
2019-05-14T23:16:41.233Z,4.20
2019-05-14T23:19:07.997Z,4.10
2019-05-14T23:21:39.027Z,4.00
2019-05-14T23:24:09.141Z,4.00
2019-05-14T23:26:38.466Z,3.90
2019-05-14T23:29:07.392Z,3.90
2019-05-14T23:31:38.443Z,3.80
2019-05-14T23:34:06.885Z,3.70
2019-05-14T23:36:35.818Z,3.60
2019-05-14T23:39:08.789Z,3.60
2019-05-14T23:41:38.311Z,3.50
2019-05-14T23:44:08.328Z,3.60
2019-05-14T23:46:37.527Z,3.50
2019-05-14T23:49:08.734Z,3.50
2019-05-14T23:51:38.519Z,3.40
2019-05-14T23:54:08.797Z,3.40
2019-05-14T23:56:38.423Z,3.50
2019-05-14T23:59:09.268Z,3.40
